Time;durP1;ratioP1;P1;durP2;ratioP2;P2;SDS_P1;SDS_P2;PMS_P1;PMS_P2;Temp;Humidity;BMP_temperature;BMP_pressure;BME280_temperature;BME280_humidity;BME280_pressure;Samples;Min_cycle;Max_cycle;Signal;HPM_P1;HPM_P2
2021/01/14 00:02:01;;;;;;;11.63;6.90;;;22.00;36.10;;;;;;6110414;28;83317;-64
2021/01/14 00:05:02;;;;;;;14.85;7.15;;;22.00;36.00;;;;;;6105029;28;80452;-65
2021/01/14 00:08:02;;;;;;;11.32;6.38;;;22.00;35.90;;;;;;6097223;28;80590;-65
2021/01/14 00:11:03;;;;;;;12.55;7.15;;;22.00;35.90;;;;;;6104125;28;80721;-65
2021/01/14 00:14:03;;;;;;;15.82;6.95;;;22.00;35.90;;;;;;6095773;28;80444;-66
2021/01/14 00:17:04;;;;;;;11.82;7.00;;;22.00;35.70;;;;;;6103645;28;81432;-65
2021/01/14 00:20:04;;;;;;;12.13;6.90;;;22.00;35.20;;;;;;6097740;28;80554;-65
2021/01/14 00:23:05;;;;;;;12.73;6.35;;;22.00;35.30;;;;;;6102154;28;80496;-65
2021/01/14 00:26:05;;;;;;;13.13;6.90;;;22.00;35.10;;;;;;6104443;28;83153;-65
2021/01/14 00:29:06;;;;;;;12.45;6.85;;;22.00;35.50;;;;;;6100369;28;81381;-65
2021/01/14 00:32:06;;;;;;;12.40;7.28;;;22.00;34.90;;;;;;6098326;28;80760;-65
2021/01/14 00:35:07;;;;;;;9.30;5.93;;;22.00;35.00;;;;;;6103191;28;81649;-67
2021/01/14 00:38:07;;;;;;;10.65;6.32;;;22.00;35.20;;;;;;6101287;28;80753;-65
2021/01/14 00:41:08;;;;;;;13.20;6.60;;;22.00;35.10;;;;;;6097565;28;80740;-66
2021/01/14 00:44:08;;;;;;;11.60;6.90;;;22.00;35.30;;;;;;6099779;28;80876;-65
2021/01/14 00:47:08;;;;;;;15.52;6.88;;;21.90;35.50;;;;;;6100503;28;80351;-66
2021/01/14 00:50:09;;;;;;;13.35;6.55;;;21.90;35.60;;;;;;6093650;28;81005;-65
2021/01/14 00:53:10;;;;;;;9.95;5.80;;;21.90;34.80;;;;;;6102417;28;80787;-65
2021/01/14 00:56:10;;;;;;;14.00;6.53;;;21.90;35.20;;;;;;6101496;28;83521;-68
2021/01/14 00:59:11;;;;;;;11.63;5.95;;;21.90;35.30;;;;;;6096659;28;80252;-67
2021/01/14 01:02:11;;;;;;;11.60;6.47;;;21.90;35.20;;;;;;6104523;28;80849;-67
2021/01/14 01:05:11;;;;;;;9.27;5.60;;;21.90;35.10;;;;;;6098850;28;81038;-67
2021/01/14 01:08:12;;;;;;;9.30;5.68;;;21.90;35.10;;;;;;6102620;28;80130;-67
2021/01/14 01:11:12;;;;;;;11.43;6.20;;;21.90;35.60;;;;;;6092473;28;83303;-67
2021/01/14 01:14:13;;;;;;;12.38;6.43;;;21.90;35.20;;;;;;6092500;28;80408;-66
2021/01/14 01:17:14;;;;;;;11.68;6.28;;;21.90;35.20;;;;;;6094494;28;80395;-66
2021/01/14 01:20:14;;;;;;;9.95;5.32;;;21.90;35.10;;;;;;6093298;28;81434;-66
2021/01/14 01:23:14;;;;;;;9.73;5.07;;;21.90;35.50;;;;;;6102036;28;80770;-66
2021/01/14 01:26:15;;;;;;;11.00;5.85;;;21.90;35.50;;;;;;6091503;28;80854;-66
2021/01/14 01:29:15;;;;;;;9.15;5.57;;;21.90;35.50;;;;;;6088187;28;80718;-67
2021/01/14 01:32:16;;;;;;;9.32;5.28;;;21.80;35.70;;;;;;6095409;28;80856;-66
2021/01/14 01:35:17;;;;;;;10.65;5.82;;;21.80;35.60;;;;;;6098772;28;80758;-67
2021/01/14 01:38:17;;;;;;;8.93;5.35;;;21.80;35.70;;;;;;6100722;28;81401;-66
2021/01/14 01:41:18;;;;;;;10.50;5.75;;;21.80;35.50;;;;;;6100371;28;81199;-66
2021/01/14 01:44:18;;;;;;;10.27;5.45;;;21.80;35.40;;;;;;6093851;28;81602;-66
2021/01/14 01:47:19;;;;;;;9.65;5.07;;;21.80;35.00;;;;;;6100519;28;82482;-66
2021/01/14 01:50:20;;;;;;;8.30;5.15;;;21.80;34.60;;;;;;6093154;28;80311;-65
2021/01/14 01:53:20;;;;;;;10.40;5.75;;;21.80;34.60;;;;;;6101147;28;86314;-66
2021/01/14 01:56:21;;;;;;;10.10;5.32;;;21.80;34.70;;;;;;6080566;28;81233;-66
2021/01/14 01:59:21;;;;;;;13.63;4.93;;;21.80;34.70;;;;;;6092342;28;80781;-67
2021/01/14 02:02:22;;;;;;;10.48;5.22;;;21.80;34.70;;;;;;6084784;28;83059;-67
2021/01/14 02:05:22;;;;;;;6.85;4.03;;;21.90;34.60;;;;;;6103506;28;80767;-66
2021/01/14 02:08:23;;;;;;;8.27;4.35;;;21.90;34.70;;;;;;6090280;28;81101;-65
2021/01/14 02:11:23;;;;;;;10.07;4.78;;;21.90;34.60;;;;;;6100717;28;80625;-65
2021/01/14 02:14:24;;;;;;;8.18;4.45;;;21.90;34.50;;;;;;6098433;28;80862;-66
2021/01/14 02:17:24;;;;;;;7.25;4.45;;;21.80;34.50;;;;;;6095175;28;80917;-66
2021/01/14 02:20:25;;;;;;;8.88;4.65;;;21.90;34.50;;;;;;6074965;28;81074;-64
2021/01/14 02:23:25;;;;;;;8.48;4.10;;;21.90;34.50;;;;;;6095292;28;85020;-65
2021/01/14 02:26:26;;;;;;;7.47;4.80;;;21.90;34.60;;;;;;6072724;28;81645;-66
2021/01/14 02:29:26;;;;;;;7.90;4.68;;;21.90;34.70;;;;;;6099670;28;80603;-65
2021/01/14 02:32:27;;;;;;;8.50;4.70;;;21.90;34.50;;;;;;6079235;28;81203;-66
2021/01/14 02:35:27;;;;;;;6.97;4.15;;;21.90;34.50;;;;;;6100251;28;80716;-65
2021/01/14 02:38:28;;;;;;;7.43;3.97;;;21.90;34.50;;;;;;6096189;28;80976;-66
2021/01/14 02:41:28;;;;;;;7.03;4.15;;;21.90;34.50;;;;;;6095678;28;80117;-66
2021/01/14 02:44:29;;;;;;;5.55;3.53;;;21.90;34.50;;;;;;6102344;28;81064;-67
2021/01/14 02:47:29;;;;;;;8.02;4.32;;;21.90;34.30;;;;;;6099250;28;80764;-66
2021/01/14 02:50:30;;;;;;;8.13;4.30;;;21.90;34.10;;;;;;6099903;28;80813;-66
2021/01/14 02:53:30;;;;;;;8.25;4.30;;;21.90;34.40;;;;;;6095119;28;80604;-67
2021/01/14 02:56:31;;;;;;;6.57;3.97;;;21.90;34.40;;;;;;6097556;28;86415;-69
2021/01/14 02:59:31;;;;;;;8.77;4.45;;;21.90;34.40;;;;;;6102069;28;80733;-68
2021/01/14 03:02:32;;;;;;;5.63;3.70;;;21.80;34.30;;;;;;6084505;28;80781;-67
2021/01/14 03:05:32;;;;;;;7.93;3.90;;;21.80;34.30;;;;;;6069231;28;80256;-67
2021/01/14 03:08:33;;;;;;;7.10;4.10;;;21.80;34.30;;;;;;6083079;28;80473;-67
2021/01/14 03:11:33;;;;;;;7.20;3.97;;;21.80;34.30;;;;;;6068532;28;80854;-67
2021/01/14 03:14:34;;;;;;;6.55;3.92;;;21.80;34.10;;;;;;6081769;28;81209;-66
2021/01/14 03:17:34;;;;;;;7.00;3.88;;;21.80;34.30;;;;;;6075099;28;80907;-66
2021/01/14 03:20:35;;;;;;;6.93;3.78;;;21.80;34.30;;;;;;6087114;28;81646;-66
2021/01/14 03:23:35;;;;;;;7.05;3.90;;;21.80;34.20;;;;;;6077815;28;80355;-67
2021/01/14 03:26:37;;;;;;;6.97;3.90;;;21.80;34.20;;;;;;6080083;28;80921;-67
2021/01/14 03:29:38;;;;;;;5.95;3.60;;;21.80;34.10;;;;;;6074146;28;81995;-66
2021/01/14 03:32:38;;;;;;;5.18;3.45;;;21.80;34.10;;;;;;6079773;28;80474;-66
2021/01/14 03:35:38;;;;;;;7.18;4.25;;;21.80;34.10;;;;;;6068231;28;80224;-66
2021/01/14 03:38:39;;;;;;;4.97;3.45;;;21.80;33.90;;;;;;6081462;28;80775;-66
2021/01/14 03:41:39;;;;;;;6.45;3.55;;;21.80;33.90;;;;;;6086708;28;81115;-66
2021/01/14 03:44:40;;;;;;;6.32;3.50;;;21.80;33.90;;;;;;6079188;28;80469;-66
2021/01/14 03:47:40;;;;;;;6.28;3.80;;;21.80;34.00;;;;;;6071327;28;80684;-66
2021/01/14 03:50:41;;;;;;;8.02;3.92;;;21.80;33.90;;;;;;6059981;28;80938;-66
2021/01/14 03:53:41;;;;;;;6.60;3.95;;;21.80;33.60;;;;;;6079057;28;80323;-66
2021/01/14 03:56:42;;;;;;;5.65;3.72;;;21.80;33.70;;;;;;6065660;28;81793;-66
2021/01/14 03:59:42;;;;;;;6.68;3.80;;;21.80;33.60;;;;;;6078884;28;80257;-66
2021/01/14 04:02:43;;;;;;;6.70;3.78;;;21.80;33.60;;;;;;6093537;28;81549;-65
2021/01/14 04:05:43;;;;;;;5.97;3.63;;;21.80;33.50;;;;;;6099962;28;80460;-65
2021/01/14 04:08:44;;;;;;;6.25;3.67;;;21.80;33.40;;;;;;6102937;28;81378;-65
2021/01/14 04:11:44;;;;;;;5.20;3.60;;;21.80;33.40;;;;;;6100867;28;81642;-66
2021/01/14 04:14:50;;;;;;;8.82;4.53;;;21.80;33.30;;;;;;6103004;28;80650;-66
2021/01/14 04:17:50;;;;;;;6.18;3.40;;;21.70;33.20;;;;;;6103248;28;80660;-66
2021/01/14 04:20:51;;;;;;;5.80;3.58;;;21.80;33.00;;;;;;6106888;28;80732;-65
2021/01/14 04:23:51;;;;;;;8.57;3.65;;;21.90;32.60;;;;;;6103623;28;81428;-64
2021/01/14 04:26:52;;;;;;;6.47;3.65;;;21.90;33.50;;;;;;6100699;28;80761;-66
2021/01/14 04:29:53;;;;;;;5.93;3.55;;;22.00;32.80;;;;;;6096013;28;83004;-66
2021/01/14 04:32:58;;;;;;;8.60;3.70;;;22.00;33.80;;;;;;6105362;28;80940;-65
2021/01/14 04:35:58;;;;;;;6.55;3.53;;;22.00;33.10;;;;;;6105602;28;80694;-65
2021/01/14 04:38:59;;;;;;;7.15;3.35;;;22.10;33.20;;;;;;6103276;28;80615;-67
2021/01/14 04:41:59;;;;;;;6.78;3.63;;;22.20;32.70;;;;;;6099696;28;81551;-66
2021/01/14 04:45:00;;;;;;;5.68;3.15;;;22.20;33.20;;;;;;6103940;28;81342;-65
2021/01/14 04:48:00;;;;;;;6.25;3.40;;;22.20;33.80;;;;;;6106326;28;81143;-66
2021/01/14 04:51:01;;;;;;;4.55;3.05;;;22.20;32.60;;;;;;6105694;28;80421;-65
2021/01/14 04:54:02;;;;;;;6.47;3.60;;;22.20;32.60;;;;;;6096254;28;82961;-67
2021/01/14 04:57:02;;;;;;;8.30;3.55;;;22.30;33.10;;;;;;6100593;28;81101;-66
2021/01/14 05:00:03;;;;;;;6.80;3.10;;;22.30;34.20;;;;;;6098191;28;90319;-68
2021/01/14 05:03:04;;;;;;;8.70;3.63;;;22.30;33.10;;;;;;6100961;28;85244;-67
2021/01/14 05:06:04;;;;;;;8.55;3.60;;;22.30;32.50;;;;;;6096278;28;80432;-66
2021/01/14 05:09:05;;;;;;;5.22;2.92;;;22.30;32.60;;;;;;6104477;28;80614;-66
2021/01/14 05:12:05;;;;;;;6.60;3.58;;;22.30;32.60;;;;;;6106027;28;80504;-66
2021/01/14 05:15:06;;;;;;;8.35;3.30;;;22.30;32.40;;;;;;6102360;28;80441;-66
2021/01/14 05:18:06;;;;;;;7.95;3.78;;;22.30;33.00;;;;;;6100292;28;80879;-66
2021/01/14 05:21:07;;;;;;;8.20;3.85;;;22.40;32.70;;;;;;6098854;28;80443;-66
2021/01/14 05:24:07;;;;;;;5.32;2.80;;;22.40;33.60;;;;;;6102642;28;81657;-66
2021/01/14 05:27:08;;;;;;;5.32;3.15;;;22.40;33.00;;;;;;6098327;28;81865;-65
2021/01/14 05:30:08;;;;;;;7.03;3.28;;;22.40;32.50;;;;;;6101582;28;80659;-65
2021/01/14 05:33:09;;;;;;;7.45;3.30;;;22.50;32.40;;;;;;6099502;28;81155;-66
2021/01/14 05:36:09;;;;;;;9.55;4.25;;;22.50;32.00;;;;;;6097598;28;80813;-65
2021/01/14 05:39:10;;;;;;;11.32;3.30;;;22.50;32.70;;;;;;6102520;28;81690;-65
2021/01/14 05:42:10;;;;;;;6.60;3.42;;;22.50;32.00;;;;;;6104385;28;80875;-65
2021/01/14 05:45:11;;;;;;;6.00;3.33;;;22.60;31.50;;;;;;6102239;28;80413;-67
2021/01/14 05:48:11;;;;;;;9.07;3.35;;;22.70;31.50;;;;;;6104283;28;80705;-68
2021/01/14 05:51:12;;;;;;;5.03;2.50;;;22.70;32.00;;;;;;6094969;28;80780;-68
2021/01/14 05:54:12;;;;;;;9.75;3.08;;;22.70;35.20;;;;;;6101354;28;81038;-68
2021/01/14 05:57:13;;;;;;;7.32;3.15;;;22.70;34.10;;;;;;6100118;28;83772;-68
2021/01/14 06:00:13;;;;;;;5.05;2.75;;;22.80;33.90;;;;;;6102040;28;81416;-69
2021/01/14 06:03:14;;;;;;;9.65;3.63;;;22.80;34.10;;;;;;6095238;28;81004;-69
2021/01/14 06:06:15;;;;;;;8.55;2.88;;;22.80;34.10;;;;;;6102811;28;80777;-69
2021/01/14 06:09:16;;;;;;;4.95;2.85;;;22.90;34.20;;;;;;6100943;28;80298;-70
2021/01/14 06:12:16;;;;;;;4.50;2.75;;;22.90;34.40;;;;;;6095700;28;81614;-67
2021/01/14 06:15:17;;;;;;;4.75;2.58;;;22.90;34.30;;;;;;6101511;28;81068;-66
2021/01/14 06:18:17;;;;;;;4.50;2.75;;;22.90;35.00;;;;;;6100035;28;80758;-68
2021/01/14 06:21:18;;;;;;;6.55;3.08;;;22.90;34.30;;;;;;6100956;28;82956;-67
2021/01/14 06:24:19;;;;;;;4.32;2.47;;;22.90;34.10;;;;;;6101861;28;81662;-67
2021/01/14 06:27:19;;;;;;;8.88;3.15;;;22.90;34.20;;;;;;6102867;28;80614;-68
2021/01/14 06:30:20;;;;;;;6.55;2.40;;;22.90;33.90;;;;;;6101032;28;81580;-67
2021/01/14 06:33:20;;;;;;;6.68;2.85;;;22.90;34.40;;;;;;6101936;28;80601;-68
2021/01/14 06:36:21;;;;;;;8.07;3.85;;;22.90;33.20;;;;;;6105320;28;81220;-67
2021/01/14 06:39:21;;;;;;;4.47;2.92;;;22.90;32.70;;;;;;6091560;28;80743;-67
2021/01/14 06:42:22;;;;;;;7.90;3.42;;;22.90;32.90;;;;;;6100038;28;81468;-66
2021/01/14 06:45:22;;;;;;;5.22;2.97;;;22.80;32.90;;;;;;6097165;28;80780;-67
2021/01/14 06:48:23;;;;;;;5.13;3.10;;;22.80;32.90;;;;;;6092376;28;80639;-67
2021/01/14 06:51:24;;;;;;;8.35;3.20;;;22.80;33.40;;;;;;6099798;28;80772;-66
2021/01/14 06:54:24;;;;;;;8.85;3.50;;;22.80;32.60;;;;;;6097218;28;81039;-67
2021/01/14 06:57:25;;;;;;;6.15;3.58;;;22.70;32.20;;;;;;6103177;28;80866;-67
2021/01/14 07:00:25;;;;;;;8.18;3.63;;;22.70;31.80;;;;;;6097267;28;82218;-67
2021/01/14 07:03:26;;;;;;;9.27;4.03;;;22.70;31.60;;;;;;6102806;28;80927;-67
2021/01/14 07:06:26;;;;;;;4.63;2.90;;;22.70;31.50;;;;;;6102020;28;81609;-67
2021/01/14 07:09:27;;;;;;;7.97;4.10;;;22.60;31.30;;;;;;6098241;28;81387;-66
2021/01/14 07:12:27;;;;;;;6.30;3.30;;;22.60;31.40;;;;;;6102446;28;80729;-66
2021/01/14 07:15:28;;;;;;;7.22;3.33;;;22.60;31.50;;;;;;6097490;28;85008;-67
2021/01/14 07:18:28;;;;;;;5.55;3.22;;;22.60;31.50;;;;;;6095438;28;81256;-66
2021/01/14 07:21:29;;;;;;;10.32;3.80;;;22.60;31.80;;;;;;6097436;28;81369;-66
2021/01/14 07:24:29;;;;;;;7.07;3.10;;;22.50;33.20;;;;;;6100189;28;80414;-67
2021/01/14 07:27:30;;;;;;;5.72;3.72;;;22.50;31.80;;;;;;6097056;28;81158;-67
2021/01/14 07:30:30;;;;;;;8.50;4.22;;;22.50;32.70;;;;;;6101199;28;80546;-67
2021/01/14 07:33:31;;;;;;;7.40;4.07;;;22.50;32.00;;;;;;6099545;28;81657;-67
2021/01/14 07:36:31;;;;;;;7.90;4.28;;;22.50;31.40;;;;;;6099809;28;80326;-67
2021/01/14 07:39:32;;;;;;;8.77;4.20;;;22.50;31.00;;;;;;6097723;28;80462;-66
2021/01/14 07:42:32;;;;;;;7.90;4.20;;;22.50;30.70;;;;;;6089400;28;80682;-66
2021/01/14 07:45:33;;;;;;;8.45;4.28;;;22.50;30.70;;;;;;6091265;28;87319;-65
2021/01/14 07:48:34;;;;;;;6.57;4.38;;;22.50;31.50;;;;;;6101358;28;80765;-66
2021/01/14 07:51:34;;;;;;;6.93;3.88;;;22.40;31.20;;;;;;6102483;28;80757;-66
2021/01/14 07:54:34;;;;;;;7.50;4.25;;;22.40;31.80;;;;;;6107028;28;81031;-66
2021/01/14 07:57:35;;;;;;;9.27;4.88;;;22.40;31.80;;;;;;6106300;28;81822;-66
2021/01/14 08:00:35;;;;;;;8.70;4.60;;;22.40;32.00;;;;;;6104846;28;80306;-66
2021/01/14 08:03:37;;;;;;;9.20;5.13;;;22.40;32.10;;;;;;6104759;28;80882;-66
2021/01/14 08:06:44;;;;;;;10.55;5.28;;;22.40;32.30;;;;;;6101265;28;80793;-66
2021/01/14 08:09:45;;;;;;;7.60;4.63;;;22.40;32.40;;;;;;6105531;28;83204;-66
2021/01/14 08:12:45;;;;;;;8.18;4.57;;;22.30;32.40;;;;;;6103950;28;80661;-65
2021/01/14 08:15:46;;;;;;;12.43;5.07;;;22.30;32.50;;;;;;6103658;28;80743;-66
2021/01/14 08:18:46;;;;;;;11.68;4.40;;;22.30;32.50;;;;;;6104179;28;80741;-66
2021/01/14 08:21:47;;;;;;;8.57;4.75;;;22.30;32.50;;;;;;6105368;28;81668;-66
2021/01/14 08:24:48;;;;;;;8.45;4.20;;;22.30;32.50;;;;;;6103680;28;81529;-66
2021/01/14 08:27:49;;;;;;;10.77;4.05;;;22.30;33.20;;;;;;6098386;28;80651;-66
2021/01/14 08:30:50;;;;;;;9.63;4.72;;;22.30;33.20;;;;;;6097608;28;80346;-66
2021/01/14 08:33:50;;;;;;;11.27;5.32;;;22.30;33.70;;;;;;6100664;28;83161;-68
2021/01/14 08:36:51;;;;;;;9.25;4.07;;;22.30;34.80;;;;;;6101276;28;80754;-68
2021/01/14 08:39:51;;;;;;;14.20;5.15;;;22.30;36.10;;;;;;6099154;28;81328;-67
2021/01/14 08:42:54;;;;;;;11.63;5.20;;;22.40;36.40;;;;;;6098530;28;82758;-67
2021/01/14 08:45:55;;;;;;;7.88;4.32;;;22.40;36.60;;;;;;6101695;28;80554;-66
2021/01/14 08:48:55;;;;;;;10.57;4.75;;;22.40;36.80;;;;;;6100705;28;81768;-66
2021/01/14 08:51:55;;;;;;;12.82;3.78;;;22.40;36.50;;;;;;6099093;28;80617;-69
2021/01/14 08:54:56;;;;;;;11.38;4.80;;;22.40;36.20;;;;;;6092763;28;81340;-67
2021/01/14 08:57:56;;;;;;;7.65;4.22;;;22.40;35.50;;;;;;6095832;28;80615;-67
2021/01/14 09:00:57;;;;;;;10.82;4.63;;;22.30;35.00;;;;;;6099283;28;81019;-67
2021/01/14 09:03:58;;;;;;;9.38;4.32;;;22.30;35.90;;;;;;6100304;28;81301;-67
2021/01/14 09:06:58;;;;;;;14.05;5.50;;;22.30;35.20;;;;;;6097009;28;81413;-67
2021/01/14 09:10:00;;;;;;;14.68;5.03;;;22.30;35.50;;;;;;6103386;28;83370;-67
2021/01/14 09:13:00;;;;;;;8.50;4.93;;;22.30;35.70;;;;;;6105300;28;80659;-66
2021/01/14 09:16:01;;;;;;;9.35;4.55;;;22.30;35.60;;;;;;6103198;28;80398;-66
2021/01/14 09:19:01;;;;;;;8.82;4.72;;;22.40;35.20;;;;;;6103661;28;81759;-67
2021/01/14 09:22:02;;;;;;;10.07;4.75;;;22.30;34.60;;;;;;6103659;28;82983;-67
2021/01/14 09:25:02;;;;;;;8.75;4.85;;;22.30;34.90;;;;;;6102138;28;81282;-67
2021/01/14 09:28:03;;;;;;;10.85;5.32;;;22.40;34.60;;;;;;6102147;28;81841;-65
2021/01/14 09:31:03;;;;;;;9.93;4.80;;;22.40;34.30;;;;;;6099352;28;81779;-67
2021/01/14 09:34:04;;;;;;;9.77;5.03;;;22.50;34.30;;;;;;6099193;28;81566;-66
2021/01/14 09:37:04;;;;;;;9.57;4.57;;;22.50;34.20;;;;;;6105182;28;80311;-67
2021/01/14 09:40:05;;;;;;;10.48;4.60;;;22.50;33.70;;;;;;6091506;28;83281;-66
2021/01/14 09:43:06;;;;;;;11.00;5.65;;;22.50;33.20;;;;;;6104911;28;81974;-66
2021/01/14 09:46:06;;;;;;;14.75;5.63;;;22.50;33.40;;;;;;6104910;28;81133;-67
2021/01/14 09:49:07;;;;;;;9.48;4.72;;;22.50;33.10;;;;;;6104272;28;80534;-67
2021/01/14 09:52:08;;;;;;;10.23;5.18;;;22.60;33.00;;;;;;6103956;28;83011;-68
2021/01/14 09:55:08;;;;;;;8.40;5.00;;;22.60;33.00;;;;;;6095250;28;80385;-65
2021/01/14 09:58:09;;;;;;;8.85;4.63;;;22.70;33.00;;;;;;6101160;28;80838;-67
2021/01/14 10:01:09;;;;;;;8.57;4.50;;;22.70;32.90;;;;;;6099242;28;80568;-67
2021/01/14 10:04:10;;;;;;;8.13;4.70;;;22.70;32.40;;;;;;6077026;28;80841;-66
2021/01/14 10:07:11;;;;;;;9.73;5.18;;;22.70;32.20;;;;;;6062592;28;80833;-67
2021/01/14 10:10:11;;;;;;;13.10;5.53;;;22.80;32.20;;;;;;6057451;28;81662;-66
2021/01/14 10:13:12;;;;;;;18.77;6.90;;;22.80;32.20;;;;;;6068286;28;81653;-67
2021/01/14 10:16:12;;;;;;;22.60;8.15;;;22.80;32.20;;;;;;6079368;28;83780;-67
2021/01/14 10:19:15;;;;;;;33.38;10.50;;;22.90;32.90;;;;;;6069872;28;80720;-67
2021/01/14 10:22:15;;;;;;;33.33;10.95;;;22.90;32.90;;;;;;6073946;28;86031;-67
2021/01/14 10:25:16;;;;;;;26.73;9.85;;;22.90;32.60;;;;;;6072661;28;83195;-67
2021/01/14 10:28:16;;;;;;;32.33;9.52;;;22.90;32.20;;;;;;6080218;28;83372;-67
2021/01/14 10:31:17;;;;;;;27.35;10.43;;;22.90;32.10;;;;;;6070398;28;80374;-67
2021/01/14 10:34:17;;;;;;;28.50;10.35;;;22.90;31.90;;;;;;6075363;28;83593;-67
2021/01/14 10:37:18;;;;;;;27.85;10.75;;;22.90;31.80;;;;;;6074209;28;83541;-67
2021/01/14 10:40:18;;;;;;;28.80;10.43;;;22.90;32.10;;;;;;6075546;28;82855;-67
2021/01/14 10:43:19;;;;;;;26.63;9.93;;;22.90;32.50;;;;;;6057194;28;83950;-67
2021/01/14 10:46:19;;;;;;;28.73;9.57;;;22.90;32.80;;;;;;6053349;28;81820;-67
2021/01/14 10:49:20;;;;;;;25.90;10.02;;;22.90;33.00;;;;;;6076892;28;80506;-66
2021/01/14 10:52:20;;;;;;;20.55;8.23;;;22.80;33.60;;;;;;6067752;28;83875;-67
2021/01/14 10:55:21;;;;;;;26.38;9.13;;;22.90;33.00;;;;;;6073988;28;82879;-68
2021/01/14 10:58:22;;;;;;;22.40;8.48;;;22.90;34.10;;;;;;6057076;28;80641;-66
2021/01/14 11:01:22;;;;;;;18.73;8.25;;;22.90;34.00;;;;;;6080950;28;80789;-67
2021/01/14 11:04:23;;;;;;;21.10;8.05;;;22.90;34.50;;;;;;6101338;28;80768;-68
2021/01/14 11:07:23;;;;;;;20.25;8.15;;;22.90;34.70;;;;;;6102844;28;82851;-66
2021/01/14 11:10:24;;;;;;;22.67;6.90;;;22.70;35.40;;;;;;6100595;28;80373;-67
2021/01/14 11:13:24;;;;;;;18.30;7.15;;;22.70;34.30;;;;;;6101081;28;80317;-67
2021/01/14 11:16:28;;;;;;;19.02;6.78;;;22.70;34.80;;;;;;6103361;28;80491;-67
2021/01/14 11:19:29;;;;;;;16.40;6.85;;;22.70;34.40;;;;;;6103840;28;81196;-65
2021/01/14 11:22:29;;;;;;;15.00;5.95;;;22.70;34.30;;;;;;6094089;28;80422;-66
2021/01/14 11:25:30;;;;;;;14.52;6.43;;;22.70;33.90;;;;;;6098093;28;81468;-67
2021/01/14 11:28:30;;;;;;;15.02;6.10;;;22.70;33.90;;;;;;6105520;28;80911;-69
2021/01/14 11:31:32;;;;;;;16.98;5.78;;;22.60;33.50;;;;;;6105475;28;81119;-66
2021/01/14 11:34:32;;;;;;;14.10;6.25;;;22.60;33.10;;;;;;6105065;28;80955;-67
2021/01/14 11:37:33;;;;;;;14.98;5.47;;;22.60;33.00;;;;;;6105605;28;81281;-65
2021/01/14 11:40:34;;;;;;;14.65;5.88;;;22.50;33.40;;;;;;6090291;28;80752;-66
2021/01/14 11:43:35;;;;;;;11.30;5.32;;;22.60;32.90;;;;;;6100314;28;80875;-66
2021/01/14 11:46:35;;;;;;;14.68;6.40;;;22.60;32.50;;;;;;6107183;28;80576;-66
2021/01/14 11:49:36;;;;;;;13.20;5.05;;;22.50;32.40;;;;;;6105049;28;81239;-65
2021/01/14 11:52:36;;;;;;;12.23;5.55;;;22.50;32.30;;;;;;6101621;28;80600;-66
2021/01/14 11:55:37;;;;;;;12.95;5.38;;;22.50;32.10;;;;;;6094696;28;81582;-67
2021/01/14 11:58:37;;;;;;;12.23;5.40;;;22.40;32.10;;;;;;6102173;28;80619;-66
2021/01/14 12:01:38;;;;;;;10.77;5.57;;;22.40;31.80;;;;;;6092950;28;80483;-66
2021/01/14 12:04:39;;;;;;;10.85;4.93;;;22.40;31.90;;;;;;6104062;28;81500;-67
2021/01/14 12:07:39;;;;;;;10.77;5.55;;;22.40;31.80;;;;;;6105225;28;81234;-67
2021/01/14 12:10:40;;;;;;;11.50;5.35;;;22.40;31.50;;;;;;6105839;28;80911;-66
2021/01/14 12:13:40;;;;;;;11.80;5.68;;;22.40;31.50;;;;;;6102847;28;80543;-66
2021/01/14 12:16:41;;;;;;;13.10;5.63;;;22.30;31.30;;;;;;6104032;28;81987;-66
2021/01/14 12:19:41;;;;;;;11.50;5.55;;;22.40;31.40;;;;;;6099435;28;81123;-66
2021/01/14 12:22:43;;;;;;;11.93;5.78;;;22.30;31.40;;;;;;6104960;28;80704;-66
2021/01/14 12:25:44;;;;;;;10.70;5.60;;;22.30;31.30;;;;;;6051288;28;80574;-67
2021/01/14 12:28:44;;;;;;;9.80;6.13;;;22.30;31.30;;;;;;6092040;28;81451;-66
2021/01/14 12:31:45;;;;;;;12.73;6.25;;;22.30;31.30;;;;;;6102902;28;80872;-66
2021/01/14 12:34:45;;;;;;;12.73;5.90;;;22.30;31.20;;;;;;6101316;28;81478;-66
2021/01/14 12:37:46;;;;;;;13.98;6.15;;;22.20;31.20;;;;;;6098553;28;81768;-66
2021/01/14 12:40:46;;;;;;;13.27;6.63;;;22.20;31.10;;;;;;6101949;28;80665;-66
2021/01/14 12:43:47;;;;;;;13.73;6.35;;;22.20;31.10;;;;;;6103302;28;81875;-66
2021/01/14 12:46:47;;;;;;;12.20;6.88;;;22.20;31.10;;;;;;6089734;28;80637;-66
2021/01/14 12:49:48;;;;;;;13.70;7.75;;;22.30;31.10;;;;;;6103463;28;80951;-66
2021/01/14 12:52:48;;;;;;;13.63;7.10;;;22.30;30.80;;;;;;6097893;28;80569;-66
2021/01/14 12:55:49;;;;;;;13.65;8.55;;;22.30;31.00;;;;;;6085934;28;84141;-66
2021/01/14 12:58:49;;;;;;;14.15;8.25;;;22.40;30.80;;;;;;6097132;28;80591;-66
2021/01/14 13:01:50;;;;;;;15.60;9.00;;;22.40;30.70;;;;;;6095623;28;80831;-66
2021/01/14 13:04:51;;;;;;;15.77;8.85;;;22.40;30.40;;;;;;6094574;28;81073;-66
2021/01/14 13:07:51;;;;;;;15.25;8.40;;;22.50;30.60;;;;;;6098445;28;80526;-66
2021/01/14 13:10:52;;;;;;;15.30;9.02;;;22.50;30.10;;;;;;6100339;28;80182;-65
2021/01/14 13:13:52;;;;;;;15.57;9.02;;;22.50;30.00;;;;;;6116498;28;80938;-65
2021/01/14 13:16:54;;;;;;;16.27;9.40;;;22.50;29.90;;;;;;6102620;28;80510;-66
2021/01/14 13:19:54;;;;;;;14.55;9.43;;;22.60;29.90;;;;;;6104649;28;81298;-65
2021/01/14 13:22:55;;;;;;;17.05;9.65;;;22.60;29.90;;;;;;6094297;28;81197;-66
2021/01/14 13:25:55;;;;;;;17.15;10.07;;;22.60;29.90;;;;;;6102806;28;80690;-66
2021/01/14 13:28:56;;;;;;;18.13;9.90;;;22.60;29.70;;;;;;6099683;28;85113;-65
2021/01/14 13:31:56;;;;;;;14.60;8.30;;;22.60;29.60;;;;;;6095073;28;83261;-65
2021/01/14 13:34:57;;;;;;;14.70;8.80;;;22.60;29.70;;;;;;6102582;28;81973;-65
2021/01/14 13:37:57;;;;;;;17.50;8.88;;;22.70;29.80;;;;;;6102719;28;81552;-65
2021/01/14 13:40:58;;;;;;;16.50;9.18;;;22.70;29.60;;;;;;6089944;28;82933;-65
2021/01/14 13:43:58;;;;;;;16.17;8.15;;;22.70;29.50;;;;;;6099760;28;80687;-66
2021/01/14 13:46:59;;;;;;;16.42;8.95;;;22.70;29.40;;;;;;6098915;28;81084;-67
2021/01/14 13:49:59;;;;;;;13.70;8.30;;;22.70;29.60;;;;;;6093058;28;80868;-66
2021/01/14 13:53:00;;;;;;;11.77;7.65;;;22.80;29.70;;;;;;6093134;28;81081;-66
2021/01/14 13:56:02;;;;;;;11.48;7.10;;;22.80;30.00;;;;;;6097861;28;80491;-66
2021/01/14 13:59:03;;;;;;;14.23;8.13;;;22.70;29.60;;;;;;6105395;28;82136;-66
2021/01/14 14:02:04;;;;;;;14.43;7.85;;;22.80;29.60;;;;;;6103942;28;81069;-67
2021/01/14 14:05:04;;;;;;;11.23;6.55;;;22.70;29.50;;;;;;6098288;28;85046;-66
2021/01/14 14:08:05;;;;;;;15.20;7.93;;;22.70;30.20;;;;;;6103431;28;81207;-67
2021/01/14 14:11:05;;;;;;;12.32;7.47;;;22.70;29.80;;;;;;6101994;28;81421;-66
2021/01/14 14:14:06;;;;;;;11.35;6.47;;;22.70;29.50;;;;;;6093445;28;80525;-67
2021/01/14 14:17:06;;;;;;;10.95;7.50;;;22.60;29.50;;;;;;6097247;28;80770;-66
2021/01/14 14:20:07;;;;;;;11.43;6.05;;;22.60;29.40;;;;;;6092487;28;80541;-66
2021/01/14 14:23:07;;;;;;;12.13;6.72;;;22.60;29.40;;;;;;6098764;28;80913;-67
2021/01/14 14:26:08;;;;;;;10.38;6.63;;;22.60;29.60;;;;;;6098494;28;81058;-66
2021/01/14 14:29:08;;;;;;;19.33;7.03;;;22.60;28.90;;;;;;6102769;28;80681;-69
2021/01/14 14:32:09;;;;;;;9.52;6.10;;;22.60;29.30;;;;;;6102969;28;80866;-68
2021/01/14 14:35:09;;;;;;;14.07;6.05;;;22.60;29.30;;;;;;6103748;28;80844;-68
2021/01/14 14:38:10;;;;;;;12.65;7.25;;;22.60;29.30;;;;;;6098582;28;80863;-69
2021/01/14 14:41:10;;;;;;;12.20;6.30;;;22.60;29.30;;;;;;6101643;28;80514;-68
2021/01/14 14:44:11;;;;;;;13.30;6.65;;;22.60;29.50;;;;;;6102138;28;80391;-69
2021/01/14 14:47:11;;;;;;;10.27;5.90;;;22.60;29.40;;;;;;6103948;28;80897;-68
2021/01/14 14:50:12;;;;;;;11.07;6.03;;;22.60;29.70;;;;;;6098348;28;80302;-67
2021/01/14 14:53:12;;;;;;;10.95;6.32;;;22.60;29.60;;;;;;6099255;28;80244;-67
2021/01/14 14:56:13;;;;;;;9.85;6.30;;;22.60;29.70;;;;;;6087749;28;82112;-67
2021/01/14 14:59:13;;;;;;;11.82;6.30;;;22.60;29.60;;;;;;6102239;28;81776;-67
2021/01/14 15:02:14;;;;;;;12.55;6.65;;;22.60;29.40;;;;;;6101660;28;80776;-68
2021/01/14 15:05:15;;;;;;;12.13;6.07;;;22.60;29.60;;;;;;6095464;28;80699;-67
2021/01/14 15:08:16;;;;;;;11.00;6.43;;;22.60;29.80;;;;;;6101821;28;80571;-68
2021/01/14 15:11:16;;;;;;;11.48;5.85;;;22.60;29.90;;;;;;6095985;28;81370;-68
2021/01/14 15:14:17;;;;;;;11.02;6.20;;;22.50;29.70;;;;;;6091669;28;80150;-67
2021/01/14 15:17:17;;;;;;;11.13;6.03;;;22.50;29.60;;;;;;6096966;28;81987;-67
2021/01/14 15:20:18;;;;;;;11.43;6.00;;;22.50;29.60;;;;;;6100873;28;80581;-67
2021/01/14 15:23:18;;;;;;;12.25;6.47;;;22.50;29.50;;;;;;6086986;28;81530;-67
2021/01/14 15:26:19;;;;;;;14.43;6.65;;;22.50;29.70;;;;;;6096437;28;80611;-67
2021/01/14 15:29:19;;;;;;;15.38;6.55;;;22.50;29.60;;;;;;6101330;28;80632;-67
2021/01/14 15:32:20;;;;;;;11.95;6.47;;;22.50;29.60;;;;;;6095204;28;80393;-67